Kentfield, CA

8:49 PM PDT on September 30, 2016 (GMT -0700)
Lilac Avenue | | Change Station

Elev 32 ft 37.95 °N, 122.54 °W | Updated 3 minutes ago

Clear
Clear
59.9 °F
Feels Like 59.9 °F
N
1.2
Wind Variable Wind from SW
Gusts 7.5 mph

Today
High -- | Low -- °F
--% Chance of Precip.
Yesterday
High -- | Low -- °F
Precip. -- in
Pressure 30.00 in
Visibility 10.0 miles
Clouds Clear
Dew Point 49 °F
Humidity 67%
Rainfall 0.00 in
Snow Depth Not available.
7:05 AM 6:53 PM
New Moon, 0% visible
METAR KAPC 010254Z 27014KT 10SM CLR 16/08 A3003 RMK AO2 SLP159 T01610083 53002
Pressure 30.00 in
Visibility 10.0 miles
Clouds Clear
Dew Point 49 °F
Humidity 67%
Rainfall 0.00 in
Snow Depth Not available.
7:05 AM 6:53 PM
New Moon, 0% visible
METAR KAPC 010254Z 27014KT 10SM CLR 16/08 A3003 RMK AO2 SLP159 T01610083 53002

10-Day Weather Forecast

Almanac

Astronomy

Sep. 30, 2016 Rise Set
Actual Time
Civil Twilight
Nautical Twilight
Astronomical Twilight
Moon
Length of Visible Light
Length of Day
Tomorrow will be .
, % of the Moon is Illuminated

Today's Extremes

State Highs State Lows

Community

WunderPhotos

Upload Photos

1,942,885 photos uploaded!

WunderBlog® & News

Nearby

Air Quality

  Air Quality AQ Index Pollutant
Not available.

Snow Depth

Station Depth Elevation

Earthquake Activity

City Distance Mag. Time & Date
Minimum magnitude displayed is 2.5.

Coastal Water Temperatures

Place Temperature

Stations

Nearby Weather Stations

Station Location Temp. Windchill Dew Point Humidity Wind Precip. Elev Updated Type
                   

Watches & Warnings

There are currently no watches in effect.